sensor_id;sensor_type;location;lat;lon;timestamp;P1;durP1;ratioP1;P2;durP2;ratioP2
7729;SDS011;3908;52.310;7.230;2023-10-08T00:00:47;85.07;;;79.73;;
7729;SDS011;3908;52.310;7.230;2023-10-08T00:03:35;79.67;;;74.00;;
7729;SDS011;3908;52.310;7.230;2023-10-08T00:06:26;77.73;;;72.43;;
7729;SDS011;3908;52.310;7.230;2023-10-08T00:09:13;87.57;;;81.87;;
7729;SDS011;3908;52.310;7.230;2023-10-08T00:12:04;85.07;;;79.17;;
7729;SDS011;3908;52.310;7.230;2023-10-08T00:14:52;121.03;;;113.37;;
7729;SDS011;3908;52.310;7.230;2023-10-08T00:17:40;127.93;;;119.43;;
7729;SDS011;3908;52.310;7.230;2023-10-08T00:20:31;129.20;;;120.93;;
7729;SDS011;3908;52.310;7.230;2023-10-08T00:23:29;131.13;;;122.13;;
7729;SDS011;3908;52.310;7.230;2023-10-08T00:26:16;129.57;;;120.20;;
7729;SDS011;3908;52.310;7.230;2023-10-08T00:29:12;127.00;;;118.77;;
7729;SDS011;3908;52.310;7.230;2023-10-08T00:32:03;120.90;;;113.57;;
7729;SDS011;3908;52.310;7.230;2023-10-08T00:34:57;97.27;;;91.47;;
7729;SDS011;3908;52.310;7.230;2023-10-08T00:37:44;86.80;;;81.27;;
7729;SDS011;3908;52.310;7.230;2023-10-08T00:40:37;104.00;;;98.30;;
7729;SDS011;3908;52.310;7.230;2023-10-08T00:43:29;126.97;;;119.20;;
7729;SDS011;3908;52.310;7.230;2023-10-08T00:46:18;140.03;;;131.57;;
7729;SDS011;3908;52.310;7.230;2023-10-08T00:49:09;145.43;;;136.37;;
7729;SDS011;3908;52.310;7.230;2023-10-08T00:52:13;177.73;;;167.63;;
7729;SDS011;3908;52.310;7.230;2023-10-08T00:55:15;115.43;;;109.00;;
7729;SDS011;3908;52.310;7.230;2023-10-08T00:58:11;122.63;;;116.03;;
7729;SDS011;3908;52.310;7.230;2023-10-08T01:01:09;144.13;;;135.63;;
7729;SDS011;3908;52.310;7.230;2023-10-08T01:03:57;155.47;;;147.57;;
7729;SDS011;3908;52.310;7.230;2023-10-08T01:06:47;97.73;;;93.07;;
7729;SDS011;3908;52.310;7.230;2023-10-08T01:09:36;91.50;;;87.23;;
7729;SDS011;3908;52.310;7.230;2023-10-08T01:12:25;96.53;;;92.03;;
7729;SDS011;3908;52.310;7.230;2023-10-08T01:15:20;77.93;;;74.30;;
7729;SDS011;3908;52.310;7.230;2023-10-08T01:18:13;74.30;;;70.80;;
7729;SDS011;3908;52.310;7.230;2023-10-08T01:21:06;71.30;;;67.90;;
7729;SDS011;3908;52.310;7.230;2023-10-08T01:23:59;86.97;;;82.97;;
7729;SDS011;3908;52.310;7.230;2023-10-08T01:26:47;90.57;;;86.07;;
7729;SDS011;3908;52.310;7.230;2023-10-08T01:29:34;90.53;;;86.33;;
7729;SDS011;3908;52.310;7.230;2023-10-08T01:32:21;88.77;;;84.60;;
7729;SDS011;3908;52.310;7.230;2023-10-08T01:35:11;101.57;;;96.80;;
7729;SDS011;3908;52.310;7.230;2023-10-08T01:38:08;82.60;;;78.63;;
7729;SDS011;3908;52.310;7.230;2023-10-08T01:41:00;81.10;;;77.10;;
7729;SDS011;3908;52.310;7.230;2023-10-08T01:43:49;67.93;;;64.50;;
7729;SDS011;3908;52.310;7.230;2023-10-08T01:46:40;58.13;;;55.07;;
7729;SDS011;3908;52.310;7.230;2023-10-08T01:49:27;50.00;;;47.30;;
7729;SDS011;3908;52.310;7.230;2023-10-08T01:52:22;34.87;;;33.10;;
7729;SDS011;3908;52.310;7.230;2023-10-08T01:55:08;25.47;;;24.27;;
7729;SDS011;3908;52.310;7.230;2023-10-08T01:58:00;34.43;;;32.87;;
7729;SDS011;3908;52.310;7.230;2023-10-08T02:00:47;44.10;;;42.10;;
7729;SDS011;3908;52.310;7.230;2023-10-08T02:03:35;46.03;;;43.93;;
7729;SDS011;3908;52.310;7.230;2023-10-08T02:06:23;36.40;;;34.70;;
7729;SDS011;3908;52.310;7.230;2023-10-08T02:09:09;33.27;;;31.77;;
7729;SDS011;3908;52.310;7.230;2023-10-08T02:12:01;36.23;;;34.53;;
7729;SDS011;3908;52.310;7.230;2023-10-08T02:14:53;33.80;;;32.17;;
7729;SDS011;3908;52.310;7.230;2023-10-08T02:17:40;37.87;;;36.07;;
7729;SDS011;3908;52.310;7.230;2023-10-08T02:20:29;41.37;;;39.37;;
7729;SDS011;3908;52.310;7.230;2023-10-08T02:23:16;32.20;;;30.63;;
7729;SDS011;3908;52.310;7.230;2023-10-08T02:26:06;29.87;;;28.53;;
7729;SDS011;3908;52.310;7.230;2023-10-08T02:28:53;21.77;;;20.80;;
7729;SDS011;3908;52.310;7.230;2023-10-08T02:31:44;17.13;;;16.33;;
7729;SDS011;3908;52.310;7.230;2023-10-08T02:34:31;23.80;;;22.60;;
7729;SDS011;3908;52.310;7.230;2023-10-08T02:37:21;23.47;;;22.30;;
7729;SDS011;3908;52.310;7.230;2023-10-08T02:40:08;28.87;;;27.33;;
7729;SDS011;3908;52.310;7.230;2023-10-08T02:43:05;24.67;;;23.50;;
7729;SDS011;3908;52.310;7.230;2023-10-08T02:45:57;25.80;;;24.63;;
7729;SDS011;3908;52.310;7.230;2023-10-08T02:48:46;23.80;;;22.70;;
7729;SDS011;3908;52.310;7.230;2023-10-08T02:51:33;22.23;;;21.23;;
7729;SDS011;3908;52.310;7.230;2023-10-08T02:54:22;18.87;;;17.97;;
7729;SDS011;3908;52.310;7.230;2023-10-08T02:57:20;23.10;;;21.97;;
7729;SDS011;3908;52.310;7.230;2023-10-08T03:00:10;29.63;;;28.27;;
7729;SDS011;3908;52.310;7.230;2023-10-08T03:02:59;37.13;;;35.23;;
7729;SDS011;3908;52.310;7.230;2023-10-08T03:05:51;40.97;;;39.10;;
7729;SDS011;3908;52.310;7.230;2023-10-08T03:08:38;43.43;;;41.33;;
7729;SDS011;3908;52.310;7.230;2023-10-08T03:11:30;36.43;;;34.80;;
7729;SDS011;3908;52.310;7.230;2023-10-08T03:14:18;30.90;;;29.47;;
7729;SDS011;3908;52.310;7.230;2023-10-08T03:17:09;24.07;;;22.83;;
7729;SDS011;3908;52.310;7.230;2023-10-08T03:19:56;28.37;;;27.03;;
7729;SDS011;3908;52.310;7.230;2023-10-08T03:23:05;28.87;;;27.47;;
7729;SDS011;3908;52.310;7.230;2023-10-08T03:26:02;30.53;;;28.97;;
7729;SDS011;3908;52.310;7.230;2023-10-08T03:28:56;21.40;;;20.37;;
7729;SDS011;3908;52.310;7.230;2023-10-08T03:31:49;23.73;;;22.53;;
7729;SDS011;3908;52.310;7.230;2023-10-08T03:34:44;29.53;;;28.10;;
7729;SDS011;3908;52.310;7.230;2023-10-08T03:37:34;30.93;;;29.33;;
7729;SDS011;3908;52.310;7.230;2023-10-08T03:40:30;34.23;;;32.50;;
7729;SDS011;3908;52.310;7.230;2023-10-08T03:43:28;27.00;;;25.70;;
7729;SDS011;3908;52.310;7.230;2023-10-08T03:46:32;31.83;;;30.23;;
7729;SDS011;3908;52.310;7.230;2023-10-08T03:49:26;32.27;;;30.67;;
7729;SDS011;3908;52.310;7.230;2023-10-08T03:52:20;34.83;;;32.93;;
7729;SDS011;3908;52.310;7.230;2023-10-08T03:55:11;31.53;;;29.93;;
7729;SDS011;3908;52.310;7.230;2023-10-08T03:58:10;32.40;;;30.80;;
7729;SDS011;3908;52.310;7.230;2023-10-08T04:01:15;25.10;;;23.80;;
7729;SDS011;3908;52.310;7.230;2023-10-08T04:04:05;27.60;;;26.20;;
7729;SDS011;3908;52.310;7.230;2023-10-08T04:06:51;30.13;;;28.57;;
7729;SDS011;3908;52.310;7.230;2023-10-08T04:09:40;29.97;;;28.33;;
7729;SDS011;3908;52.310;7.230;2023-10-08T04:12:34;28.47;;;26.97;;
7729;SDS011;3908;52.310;7.230;2023-10-08T04:15:22;31.27;;;29.67;;
7729;SDS011;3908;52.310;7.230;2023-10-08T04:18:09;36.00;;;34.10;;
7729;SDS011;3908;52.310;7.230;2023-10-08T04:20:58;41.57;;;39.57;;
7729;SDS011;3908;52.310;7.230;2023-10-08T04:23:50;37.90;;;35.90;;
7729;SDS011;3908;52.310;7.230;2023-10-08T04:26:37;32.87;;;31.20;;
7729;SDS011;3908;52.310;7.230;2023-10-08T04:29:26;34.83;;;33.17;;
7729;SDS011;3908;52.310;7.230;2023-10-08T04:32:24;37.47;;;35.67;;
7729;SDS011;3908;52.310;7.230;2023-10-08T04:35:11;42.70;;;40.67;;
7729;SDS011;3908;52.310;7.230;2023-10-08T04:38:02;34.97;;;33.20;;
7729;SDS011;3908;52.310;7.230;2023-10-08T04:40:50;36.30;;;34.40;;
7729;SDS011;3908;52.310;7.230;2023-10-08T04:43:37;35.73;;;33.83;;
7729;SDS011;3908;52.310;7.230;2023-10-08T04:46:24;33.13;;;31.40;;
7729;SDS011;3908;52.310;7.230;2023-10-08T04:49:36;28.70;;;27.07;;
7729;SDS011;3908;52.310;7.230;2023-10-08T04:52:30;25.67;;;24.20;;
7729;SDS011;3908;52.310;7.230;2023-10-08T04:55:19;25.37;;;23.43;;
7729;SDS011;3908;52.310;7.230;2023-10-08T04:58:15;23.67;;;22.27;;
7729;SDS011;3908;52.310;7.230;2023-10-08T05:01:15;24.67;;;23.03;;
7729;SDS011;3908;52.310;7.230;2023-10-08T05:04:06;24.00;;;22.37;;
7729;SDS011;3908;52.310;7.230;2023-10-08T05:07:12;24.57;;;22.57;;
7729;SDS011;3908;52.310;7.230;2023-10-08T05:20:30;127.50;;;120.67;;
7729;SDS011;3908;52.310;7.230;2023-10-08T05:23:26;103.00;;;97.97;;
7729;SDS011;3908;52.310;7.230;2023-10-08T05:26:30;91.27;;;86.70;;
7729;SDS011;3908;52.310;7.230;2023-10-08T05:29:27;68.67;;;65.17;;
7729;SDS011;3908;52.310;7.230;2023-10-08T05:32:57;43.97;;;41.27;;
7729;SDS011;3908;52.310;7.230;2023-10-08T05:36:04;34.03;;;32.20;;
7729;SDS011;3908;52.310;7.230;2023-10-08T05:39:03;33.13;;;31.03;;
7729;SDS011;3908;52.310;7.230;2023-10-08T05:42:07;27.90;;;26.27;;
7729;SDS011;3908;52.310;7.230;2023-10-08T05:45:02;24.40;;;22.87;;
7729;SDS011;3908;52.310;7.230;2023-10-08T05:47:59;16.53;;;15.53;;
7729;SDS011;3908;52.310;7.230;2023-10-08T05:51:07;13.47;;;12.47;;
7729;SDS011;3908;52.310;7.230;2023-10-08T05:53:59;12.63;;;11.83;;
7729;SDS011;3908;52.310;7.230;2023-10-08T05:56:56;14.03;;;12.87;;
7729;SDS011;3908;52.310;7.230;2023-10-08T05:59:54;14.20;;;13.33;;
7729;SDS011;3908;52.310;7.230;2023-10-08T06:02:54;15.73;;;14.83;;
7729;SDS011;3908;52.310;7.230;2023-10-08T06:05:55;17.03;;;16.00;;
7729;SDS011;3908;52.310;7.230;2023-10-08T06:09:09;15.17;;;14.30;;
7729;SDS011;3908;52.310;7.230;2023-10-08T06:12:07;18.10;;;16.97;;
7729;SDS011;3908;52.310;7.230;2023-10-08T06:15:05;17.20;;;16.23;;
7729;SDS011;3908;52.310;7.230;2023-10-08T06:17:54;18.30;;;17.30;;
7729;SDS011;3908;52.310;7.230;2023-10-08T06:20:49;18.37;;;17.37;;
7729;SDS011;3908;52.310;7.230;2023-10-08T06:23:40;24.63;;;23.37;;
7729;SDS011;3908;52.310;7.230;2023-10-08T06:26:29;24.37;;;22.83;;
7729;SDS011;3908;52.310;7.230;2023-10-08T06:29:19;29.43;;;27.73;;
7729;SDS011;3908;52.310;7.230;2023-10-08T06:32:12;31.60;;;29.43;;
7729;SDS011;3908;52.310;7.230;2023-10-08T06:34:59;31.67;;;29.80;;
7729;SDS011;3908;52.310;7.230;2023-10-08T06:37:48;44.80;;;42.60;;
7729;SDS011;3908;52.310;7.230;2023-10-08T06:40:40;53.23;;;50.43;;
7729;SDS011;3908;52.310;7.230;2023-10-08T06:43:31;60.30;;;57.27;;
7729;SDS011;3908;52.310;7.230;2023-10-08T06:46:23;60.90;;;58.07;;
7729;SDS011;3908;52.310;7.230;2023-10-08T06:49:11;55.53;;;52.57;;
7729;SDS011;3908;52.310;7.230;2023-10-08T06:52:01;43.23;;;40.90;;
7729;SDS011;3908;52.310;7.230;2023-10-08T06:54:49;39.60;;;37.63;;
7729;SDS011;3908;52.310;7.230;2023-10-08T06:57:38;41.23;;;38.80;;
7729;SDS011;3908;52.310;7.230;2023-10-08T07:00:26;39.37;;;37.30;;
7729;SDS011;3908;52.310;7.230;2023-10-08T07:03:24;44.07;;;41.83;;
7729;SDS011;3908;52.310;7.230;2023-10-08T07:06:13;43.90;;;41.53;;
7729;SDS011;3908;52.310;7.230;2023-10-08T07:09:11;43.20;;;40.97;;
7729;SDS011;3908;52.310;7.230;2023-10-08T07:12:07;40.57;;;38.07;;
7729;SDS011;3908;52.310;7.230;2023-10-08T07:14:59;40.17;;;38.00;;
7729;SDS011;3908;52.310;7.230;2023-10-08T07:17:50;44.40;;;42.10;;
7729;SDS011;3908;52.310;7.230;2023-10-08T07:20:37;46.03;;;43.70;;
7729;SDS011;3908;52.310;7.230;2023-10-08T07:23:25;40.67;;;38.20;;
7729;SDS011;3908;52.310;7.230;2023-10-08T07:26:16;48.13;;;45.77;;
7729;SDS011;3908;52.310;7.230;2023-10-08T07:29:03;46.47;;;44.07;;
7729;SDS011;3908;52.310;7.230;2023-10-08T07:31:53;46.73;;;44.43;;
7729;SDS011;3908;52.310;7.230;2023-10-08T07:34:42;51.27;;;48.53;;
7729;SDS011;3908;52.310;7.230;2023-10-08T07:37:33;51.00;;;48.30;;
7729;SDS011;3908;52.310;7.230;2023-10-08T07:40:21;53.77;;;50.50;;
7729;SDS011;3908;52.310;7.230;2023-10-08T07:43:13;52.20;;;49.27;;
7729;SDS011;3908;52.310;7.230;2023-10-08T07:46:03;56.37;;;53.67;;
7729;SDS011;3908;52.310;7.230;2023-10-08T07:48:51;55.47;;;52.57;;
7729;SDS011;3908;52.310;7.230;2023-10-08T07:51:39;73.13;;;69.60;;
7729;SDS011;3908;52.310;7.230;2023-10-08T07:54:26;80.83;;;76.93;;
7729;SDS011;3908;52.310;7.230;2023-10-08T07:57:15;68.83;;;65.20;;
7729;SDS011;3908;52.310;7.230;2023-10-08T08:00:04;57.13;;;53.93;;
7729;SDS011;3908;52.310;7.230;2023-10-08T08:03:04;52.00;;;49.17;;
7729;SDS011;3908;52.310;7.230;2023-10-08T08:05:57;52.87;;;49.87;;
7729;SDS011;3908;52.310;7.230;2023-10-08T08:08:45;73.30;;;69.83;;
7729;SDS011;3908;52.310;7.230;2023-10-08T08:11:33;78.53;;;74.63;;
7729;SDS011;3908;52.310;7.230;2023-10-08T08:14:22;123.27;;;116.60;;
7729;SDS011;3908;52.310;7.230;2023-10-08T08:17:10;153.87;;;145.43;;
7729;SDS011;3908;52.310;7.230;2023-10-08T08:20:03;156.70;;;149.13;;
7729;SDS011;3908;52.310;7.230;2023-10-08T08:23:03;124.27;;;118.57;;
7729;SDS011;3908;52.310;7.230;2023-10-08T08:25:58;105.87;;;100.97;;
7729;SDS011;3908;52.310;7.230;2023-10-08T08:28:58;90.20;;;85.97;;
7729;SDS011;3908;52.310;7.230;2023-10-08T08:31:49;81.80;;;77.97;;
7729;SDS011;3908;52.310;7.230;2023-10-08T08:34:38;94.33;;;90.03;;
7729;SDS011;3908;52.310;7.230;2023-10-08T08:37:32;106.27;;;101.27;;
7729;SDS011;3908;52.310;7.230;2023-10-08T08:40:20;111.47;;;106.17;;
7729;SDS011;3908;52.310;7.230;2023-10-08T08:43:09;111.70;;;106.73;;
7729;SDS011;3908;52.310;7.230;2023-10-08T08:46:00;95.43;;;91.13;;
7729;SDS011;3908;52.310;7.230;2023-10-08T08:48:50;33.00;;;31.23;;
7729;SDS011;3908;52.310;7.230;2023-10-08T08:51:41;25.10;;;23.60;;
7729;SDS011;3908;52.310;7.230;2023-10-08T08:54:30;19.63;;;18.27;;
7729;SDS011;3908;52.310;7.230;2023-10-08T08:57:18;69.87;;;66.30;;
7729;SDS011;3908;52.310;7.230;2023-10-08T09:00:07;122.57;;;116.57;;
7729;SDS011;3908;52.310;7.230;2023-10-08T09:02:56;169.33;;;160.87;;
7729;SDS011;3908;52.310;7.230;2023-10-08T09:05:45;137.87;;;130.70;;
7729;SDS011;3908;52.310;7.230;2023-10-08T09:08:36;89.73;;;85.07;;
7729;SDS011;3908;52.310;7.230;2023-10-08T09:11:27;38.67;;;36.30;;
7729;SDS011;3908;52.310;7.230;2023-10-08T09:14:14;37.43;;;35.53;;
7729;SDS011;3908;52.310;7.230;2023-10-08T09:17:06;36.03;;;34.23;;
7729;SDS011;3908;52.310;7.230;2023-10-08T09:19:52;25.70;;;24.40;;
7729;SDS011;3908;52.310;7.230;2023-10-08T09:22:40;14.70;;;9.90;;
7729;SDS011;3908;52.310;7.230;2023-10-08T09:25:27;8.43;;;7.63;;
7729;SDS011;3908;52.310;7.230;2023-10-08T09:28:18;15.97;;;14.77;;
7729;SDS011;3908;52.310;7.230;2023-10-08T09:31:09;27.77;;;26.10;;
7729;SDS011;3908;52.310;7.230;2023-10-08T09:33:58;48.77;;;46.27;;
7729;SDS011;3908;52.310;7.230;2023-10-08T09:36:45;35.10;;;33.23;;
7729;SDS011;3908;52.310;7.230;2023-10-08T09:39:32;27.77;;;26.23;;
7729;SDS011;3908;52.310;7.230;2023-10-08T09:42:20;31.07;;;29.27;;
7729;SDS011;3908;52.310;7.230;2023-10-08T09:45:10;25.13;;;23.27;;
7729;SDS011;3908;52.310;7.230;2023-10-08T09:47:57;16.20;;;15.20;;
7729;SDS011;3908;52.310;7.230;2023-10-08T09:54:09;44.00;;;41.73;;
7729;SDS011;3908;52.310;7.230;2023-10-08T09:56:59;55.47;;;52.47;;
7729;SDS011;3908;52.310;7.230;2023-10-08T09:59:48;23.97;;;22.73;;
7729;SDS011;3908;52.310;7.230;2023-10-08T10:02:35;24.27;;;22.93;;
7729;SDS011;3908;52.310;7.230;2023-10-08T10:05:22;13.13;;;12.17;;
7729;SDS011;3908;52.310;7.230;2023-10-08T10:08:09;10.47;;;9.63;;
7729;SDS011;3908;52.310;7.230;2023-10-08T10:10:59;5.80;;;5.33;;
7729;SDS011;3908;52.310;7.230;2023-10-08T10:13:50;11.10;;;10.33;;
7729;SDS011;3908;52.310;7.230;2023-10-08T10:16:38;31.90;;;29.63;;
7729;SDS011;3908;52.310;7.230;2023-10-08T10:19:27;39.10;;;37.17;;
7729;SDS011;3908;52.310;7.230;2023-10-08T10:22:14;54.87;;;52.17;;
7729;SDS011;3908;52.310;7.230;2023-10-08T10:25:16;33.77;;;32.23;;
7729;SDS011;3908;52.310;7.230;2023-10-08T10:28:23;23.43;;;22.13;;
7729;SDS011;3908;52.310;7.230;2023-10-08T10:31:18;27.50;;;26.10;;
7729;SDS011;3908;52.310;7.230;2023-10-08T10:34:05;51.40;;;48.97;;
7729;SDS011;3908;52.310;7.230;2023-10-08T10:36:57;45.90;;;43.63;;
7729;SDS011;3908;52.310;7.230;2023-10-08T10:39:51;59.20;;;56.23;;
7729;SDS011;3908;52.310;7.230;2023-10-08T10:42:40;97.43;;;92.93;;
7729;SDS011;3908;52.310;7.230;2023-10-08T10:45:34;92.17;;;88.07;;
7729;SDS011;3908;52.310;7.230;2023-10-08T10:48:26;153.33;;;145.97;;
7729;SDS011;3908;52.310;7.230;2023-10-08T10:51:20;138.40;;;132.13;;
7729;SDS011;3908;52.310;7.230;2023-10-08T10:54:07;82.57;;;78.93;;
7729;SDS011;3908;52.310;7.230;2023-10-08T10:56:58;27.47;;;25.93;;
7729;SDS011;3908;52.310;7.230;2023-10-08T10:59:53;19.20;;;17.97;;
7729;SDS011;3908;52.310;7.230;2023-10-08T11:02:42;23.10;;;22.00;;
7729;SDS011;3908;52.310;7.230;2023-10-08T11:05:37;52.53;;;50.10;;
7729;SDS011;3908;52.310;7.230;2023-10-08T11:08:33;66.27;;;62.57;;
7729;SDS011;3908;52.310;7.230;2023-10-08T11:11:25;44.77;;;41.97;;
7729;SDS011;3908;52.310;7.230;2023-10-08T11:14:13;66.60;;;63.10;;
7729;SDS011;3908;52.310;7.230;2023-10-08T11:17:09;67.73;;;64.37;;
7729;SDS011;3908;52.310;7.230;2023-10-08T11:20:01;62.27;;;59.27;;
7729;SDS011;3908;52.310;7.230;2023-10-08T11:22:53;57.63;;;54.73;;
7729;SDS011;3908;52.310;7.230;2023-10-08T11:25:42;54.43;;;51.67;;
7729;SDS011;3908;52.310;7.230;2023-10-08T11:28:39;50.77;;;48.27;;
7729;SDS011;3908;52.310;7.230;2023-10-08T11:31:30;49.23;;;46.57;;
7729;SDS011;3908;52.310;7.230;2023-10-08T11:34:19;41.70;;;39.60;;
7729;SDS011;3908;52.310;7.230;2023-10-08T11:37:12;41.07;;;39.00;;
7729;SDS011;3908;52.310;7.230;2023-10-08T11:40:06;34.10;;;32.10;;
7729;SDS011;3908;52.310;7.230;2023-10-08T11:43:01;34.07;;;32.17;;
7729;SDS011;3908;52.310;7.230;2023-10-08T11:45:48;44.67;;;42.43;;
7729;SDS011;3908;52.310;7.230;2023-10-08T11:48:35;46.77;;;44.57;;
7729;SDS011;3908;52.310;7.230;2023-10-08T11:51:24;49.90;;;47.57;;
7729;SDS011;3908;52.310;7.230;2023-10-08T11:54:12;39.60;;;37.60;;
7729;SDS011;3908;52.310;7.230;2023-10-08T11:56:59;31.00;;;29.40;;
7729;SDS011;3908;52.310;7.230;2023-10-08T11:59:48;37.30;;;35.40;;
7729;SDS011;3908;52.310;7.230;2023-10-08T12:02:38;48.90;;;46.50;;
7729;SDS011;3908;52.310;7.230;2023-10-08T12:05:26;50.77;;;48.17;;
7729;SDS011;3908;52.310;7.230;2023-10-08T12:08:14;27.70;;;26.13;;
7729;SDS011;3908;52.310;7.230;2023-10-08T12:11:03;29.27;;;27.77;;
7729;SDS011;3908;52.310;7.230;2023-10-08T12:13:57;21.10;;;19.50;;
7729;SDS011;3908;52.310;7.230;2023-10-08T12:16:44;19.43;;;18.23;;
7729;SDS011;3908;52.310;7.230;2023-10-08T12:19:31;22.53;;;21.23;;
7729;SDS011;3908;52.310;7.230;2023-10-08T12:22:17;23.67;;;22.40;;
7729;SDS011;3908;52.310;7.230;2023-10-08T12:25:05;50.67;;;48.13;;
7729;SDS011;3908;52.310;7.230;2023-10-08T12:27:54;48.97;;;46.53;;
7729;SDS011;3908;52.310;7.230;2023-10-08T12:30:42;52.67;;;50.00;;
7729;SDS011;3908;52.310;7.230;2023-10-08T12:33:29;47.80;;;45.57;;
7729;SDS011;3908;52.310;7.230;2023-10-08T12:36:17;49.67;;;47.37;;
7729;SDS011;3908;52.310;7.230;2023-10-08T12:39:04;41.67;;;39.70;;
7729;SDS011;3908;52.310;7.230;2023-10-08T12:41:58;49.73;;;47.20;;
7729;SDS011;3908;52.310;7.230;2023-10-08T12:44:55;53.37;;;50.80;;
7729;SDS011;3908;52.310;7.230;2023-10-08T12:47:42;39.53;;;37.33;;
7729;SDS011;3908;52.310;7.230;2023-10-08T12:50:32;43.03;;;41.03;;
7729;SDS011;3908;52.310;7.230;2023-10-08T12:53:28;47.55;;;45.35;;
7729;SDS011;3908;52.310;7.230;2023-10-08T12:56:19;39.28;;;37.30;;
7729;SDS011;3908;52.310;7.230;2023-10-08T12:59:17;32.88;;;31.15;;
7729;SDS011;3908;52.310;7.230;2023-10-08T13:02:11;31.63;;;30.02;;
7729;SDS011;3908;52.310;7.230;2023-10-08T13:04:58;20.90;;;19.73;;
7729;SDS011;3908;52.310;7.230;2023-10-08T13:07:45;23.07;;;21.87;;
7729;SDS011;3908;52.310;7.230;2023-10-08T13:10:31;15.98;;;15.07;;
7729;SDS011;3908;52.310;7.230;2023-10-08T13:13:18;20.30;;;19.10;;
7729;SDS011;3908;52.310;7.230;2023-10-08T13:16:08;29.70;;;28.17;;
7729;SDS011;3908;52.310;7.230;2023-10-08T13:18:56;20.93;;;19.73;;
7729;SDS011;3908;52.310;7.230;2023-10-08T13:21:43;16.23;;;15.38;;
7729;SDS011;3908;52.310;7.230;2023-10-08T13:24:33;15.97;;;15.23;;
7729;SDS011;3908;52.310;7.230;2023-10-08T13:27:21;17.20;;;16.23;;
7729;SDS011;3908;52.310;7.230;2023-10-08T13:30:09;18.97;;;18.07;;
7729;SDS011;3908;52.310;7.230;2023-10-08T13:32:56;17.15;;;16.20;;
7729;SDS011;3908;52.310;7.230;2023-10-08T13:35:44;25.53;;;24.23;;
7729;SDS011;3908;52.310;7.230;2023-10-08T13:38:31;28.20;;;26.50;;
7729;SDS011;3908;52.310;7.230;2023-10-08T13:41:18;22.87;;;21.63;;
7729;SDS011;3908;52.310;7.230;2023-10-08T13:44:04;24.57;;;23.20;;
7729;SDS011;3908;52.310;7.230;2023-10-08T13:46:51;21.37;;;19.97;;
7729;SDS011;3908;52.310;7.230;2023-10-08T13:49:42;23.83;;;22.50;;
7729;SDS011;3908;52.310;7.230;2023-10-08T13:52:34;80.60;;;77.07;;
7729;SDS011;3908;52.310;7.230;2023-10-08T13:55:24;66.60;;;63.33;;
7729;SDS011;3908;52.310;7.230;2023-10-08T13:58:11;79.13;;;75.57;;
7729;SDS011;3908;52.310;7.230;2023-10-08T14:01:00;58.87;;;56.10;;
7729;SDS011;3908;52.310;7.230;2023-10-08T14:03:50;86.93;;;83.13;;
7729;SDS011;3908;52.310;7.230;2023-10-08T14:06:41;96.30;;;92.10;;
7729;SDS011;3908;52.310;7.230;2023-10-08T14:09:34;93.87;;;89.53;;
7729;SDS011;3908;52.310;7.230;2023-10-08T14:12:23;104.83;;;100.33;;
7729;SDS011;3908;52.310;7.230;2023-10-08T14:15:13;111.63;;;106.87;;
7729;SDS011;3908;52.310;7.230;2023-10-08T14:18:00;116.83;;;111.03;;
7729;SDS011;3908;52.310;7.230;2023-10-08T14:20:50;21.93;;;20.77;;
7729;SDS011;3908;52.310;7.230;2023-10-08T14:23:39;16.90;;;15.80;;
7729;SDS011;3908;52.310;7.230;2023-10-08T14:26:27;23.13;;;21.63;;
7729;SDS011;3908;52.310;7.230;2023-10-08T14:29:20;59.23;;;56.57;;
7729;SDS011;3908;52.310;7.230;2023-10-08T14:32:10;84.53;;;80.77;;
7729;SDS011;3908;52.310;7.230;2023-10-08T14:34:57;87.70;;;83.57;;
7729;SDS011;3908;52.310;7.230;2023-10-08T14:38:01;31.57;;;30.07;;
7729;SDS011;3908;52.310;7.230;2023-10-08T14:41:05;15.90;;;14.87;;
7729;SDS011;3908;52.310;7.230;2023-10-08T14:44:11;66.57;;;63.27;;
7729;SDS011;3908;52.310;7.230;2023-10-08T14:47:00;58.80;;;55.83;;
7729;SDS011;3908;52.310;7.230;2023-10-08T14:49:47;76.43;;;73.13;;
7729;SDS011;3908;52.310;7.230;2023-10-08T14:52:33;87.10;;;83.27;;
7729;SDS011;3908;52.310;7.230;2023-10-08T14:55:21;72.67;;;69.37;;
7729;SDS011;3908;52.310;7.230;2023-10-08T14:58:08;83.87;;;80.17;;
7729;SDS011;3908;52.310;7.230;2023-10-08T15:01:00;42.00;;;39.97;;
7729;SDS011;3908;52.310;7.230;2023-10-08T15:03:47;67.50;;;64.27;;
7729;SDS011;3908;52.310;7.230;2023-10-08T15:06:34;27.67;;;26.03;;
7729;SDS011;3908;52.310;7.230;2023-10-08T15:09:20;58.67;;;55.73;;
7729;SDS011;3908;52.310;7.230;2023-10-08T15:12:09;55.27;;;52.00;;
7729;SDS011;3908;52.310;7.230;2023-10-08T15:14:55;30.83;;;29.23;;
7729;SDS011;3908;52.310;7.230;2023-10-08T15:17:44;23.30;;;21.80;;
7729;SDS011;3908;52.310;7.230;2023-10-08T15:20:31;23.27;;;22.13;;
7729;SDS011;3908;52.310;7.230;2023-10-08T15:23:19;31.80;;;30.37;;
7729;SDS011;3908;52.310;7.230;2023-10-08T15:26:11;35.90;;;33.50;;
7729;SDS011;3908;52.310;7.230;2023-10-08T15:28:58;30.57;;;28.70;;
7729;SDS011;3908;52.310;7.230;2023-10-08T15:31:45;59.43;;;56.30;;
7729;SDS011;3908;52.310;7.230;2023-10-08T15:34:33;72.93;;;69.53;;
7729;SDS011;3908;52.310;7.230;2023-10-08T15:37:19;87.97;;;83.80;;
7729;SDS011;3908;52.310;7.230;2023-10-08T15:40:07;72.60;;;69.27;;
7729;SDS011;3908;52.310;7.230;2023-10-08T15:42:54;92.47;;;87.87;;
7729;SDS011;3908;52.310;7.230;2023-10-08T15:45:42;103.20;;;98.37;;
7729;SDS011;3908;52.310;7.230;2023-10-08T15:48:30;95.43;;;90.93;;
7729;SDS011;3908;52.310;7.230;2023-10-08T15:51:19;115.20;;;109.40;;
7729;SDS011;3908;52.310;7.230;2023-10-08T15:54:06;123.53;;;117.30;;
7729;SDS011;3908;52.310;7.230;2023-10-08T15:56:53;121.23;;;115.23;;
7729;SDS011;3908;52.310;7.230;2023-10-08T15:59:39;131.17;;;124.40;;
7729;SDS011;3908;52.310;7.230;2023-10-08T16:02:26;104.73;;;99.83;;
7729;SDS011;3908;52.310;7.230;2023-10-08T16:05:13;101.53;;;96.37;;
7729;SDS011;3908;52.310;7.230;2023-10-08T16:08:03;85.13;;;80.83;;
7729;SDS011;3908;52.310;7.230;2023-10-08T16:10:52;93.40;;;89.03;;
7729;SDS011;3908;52.310;7.230;2023-10-08T16:13:39;80.40;;;76.67;;
7729;SDS011;3908;52.310;7.230;2023-10-08T16:16:29;78.50;;;74.80;;
7729;SDS011;3908;52.310;7.230;2023-10-08T16:19:16;74.83;;;71.43;;
7729;SDS011;3908;52.310;7.230;2023-10-08T16:22:03;58.80;;;56.07;;
7729;SDS011;3908;52.310;7.230;2023-10-08T16:27:27;51.40;;;48.90;;
7729;SDS011;3908;52.310;7.230;2023-10-08T16:30:15;49.33;;;46.80;;
7729;SDS011;3908;52.310;7.230;2023-10-08T16:33:02;46.87;;;44.53;;
7729;SDS011;3908;52.310;7.230;2023-10-08T16:35:50;39.40;;;37.50;;
7729;SDS011;3908;52.310;7.230;2023-10-08T16:38:37;39.83;;;37.93;;
7729;SDS011;3908;52.310;7.230;2023-10-08T16:41:24;35.87;;;34.10;;
7729;SDS011;3908;52.310;7.230;2023-10-08T16:59:56;26.67;;;25.30;;
7729;SDS011;3908;52.310;7.230;2023-10-08T17:02:46;23.20;;;21.90;;
7729;SDS011;3908;52.310;7.230;2023-10-08T17:05:33;18.83;;;17.87;;
7729;SDS011;3908;52.310;7.230;2023-10-08T17:08:20;17.20;;;16.20;;
7729;SDS011;3908;52.310;7.230;2023-10-08T17:11:07;16.10;;;15.00;;
7729;SDS011;3908;52.310;7.230;2023-10-08T17:13:55;16.40;;;15.60;;
7729;SDS011;3908;52.310;7.230;2023-10-08T17:16:42;15.50;;;14.60;;
7729;SDS011;3908;52.310;7.230;2023-10-08T17:19:30;16.47;;;15.47;;
7729;SDS011;3908;52.310;7.230;2023-10-08T17:22:20;15.97;;;15.07;;
7729;SDS011;3908;52.310;7.230;2023-10-08T17:25:07;17.67;;;16.53;;
7729;SDS011;3908;52.310;7.230;2023-10-08T17:27:55;19.17;;;17.90;;
7729;SDS011;3908;52.310;7.230;2023-10-08T17:30:41;18.70;;;17.60;;
7729;SDS011;3908;52.310;7.230;2023-10-08T17:33:29;17.37;;;16.43;;
7729;SDS011;3908;52.310;7.230;2023-10-08T17:36:18;20.03;;;18.73;;
7729;SDS011;3908;52.310;7.230;2023-10-08T17:39:05;19.83;;;18.87;;